Startpagina
METAR-TAF:

METAR-TAF

Vliegvelden :

Bahrein, Bahrein

Internationale luchthaven van Bahrein

breedte: 26-16N, lengte: 050-39E, hoogte: 2 m

Actueel weer

Dit bericht is 28 minuten geleden gemaakt, om 11:30 UTC
Wind 9 kt uit het noordoosten
Temperatuur 28°C
Vochtigheid 55%
Druk 1017 hPa
Zicht 10 km of meer
Weinig wolken op 3000 ft

METAR: OBBI 191130Z 04009KT 9999 FEW030 28/18 Q1017 NOSIG

Tijdstip: 14:58 (11:58 UTC)

Verwachting

Dit bericht is 58 minuten geleden gemaakt, om 11:00 UTC
Verwachting geldig van 19 om 12 UTC tot 20 om 18 UTC
Wind 8 kt uit het oosten
Zicht 10 km of meer
Verspreide wolken op 4000 ft

TAF: OBBI 191100Z 1912/2018 08008KT 9999 SCT040

Waarnemingen en weersverwachtingen van meer dan 4000 vliegvelden (METAR en TAF).

De beschikbare stations zijn de gele en rode punten op de kaart.

Ga met uw muis naar het station om de naam te zien.

Klik dan om waarnemingen en weersverwachtingen te zien.

kaart wijzigen: klik op de groene knoppen met een zwart kruis om in te zoomen, op de groene knop met een streepje om uit te zoomen of op de groene pijlen voor aangrenzende kaarten.


METAR-TAF: